Latest Weather Observations for Cobar Airport

IDN60801

Issued at 6:03 pm EST Tuesday 21 April 2015 (issued every 30 minutes, with the page automatically refreshed every 10 minutes)

About weather observations | Map of weather stations | Latest weather observations for NSW | Other Formats
Station Details ID: 048237 Name: COBAR AIRPORT AWS Lat: -31.54 Lon: 145.80 Height: 218.0 m
Data from the previous 72 hours. | See also: Recent months for locations in New South Wales
Date/Time
EST
Temp
°C
App
Temp
°C
Dew
Point
Rel
Hum
%
Delta-T
°C
Wind Press
QNH
hPa
Press
MSL
hPa
Rain
since 9 am
mm
Dir
 
Spd
km/h
Gust
km/h
Spd
kts
Gust
kts
21/06:00pm 15.3 11.1 5.8 53 4.6 SSE 17 24 9 13 1023.8 1023.3 0.2
21/05:30pm 15.8 11.0 5.4 50 5.0 SSE 20 32 11 17 1023.6 1023.1 0.2
21/05:00pm 16.3 10.9 6.2 51 4.9 S 24 33 13 18 1023.3 1022.8 0.2
21/04:30pm 16.5 11.4 5.8 49 5.2 SSE 22 32 12 17 1023.3 1022.8 0.2
21/04:00pm 17.0 11.2 6.2 49 5.3 SSE 26 35 14 19 1023.1 1022.6 0.2
21/03:30pm 18.0 12.6 6.5 47 5.8 SE 24 33 13 18 1023.0 1022.5 0.2
21/03:00pm 17.9 12.4 5.8 45 5.9 SE 24 35 13 19 1022.9 1022.4 0.2
21/02:30pm 17.4 12.2 5.7 46 5.7 SE 22 30 12 16 1022.9 1022.4 0.2
21/02:00pm 17.6 13.1 5.9 46 5.8 SSE 19 32 10 17 1022.9 1022.4 0.2
21/01:30pm 16.5 10.9 5.5 48 5.3 SSE 24 39 13 21 1023.1 1022.6 0.2
21/01:00pm 16.8 11.0 6.3 50 5.2 S 26 37 14 20 1023.4 1022.9 0.2
21/12:30pm 16.2 10.9 6.6 53 4.8 S 24 37 13 20 1023.6 1023.1 0.2
21/12:00pm 15.3 10.3 6.6 56 4.3 SSE 22 32 12 17 1024.1 1023.6 0.2
21/11:30am 16.1 11.0 7.6 57 4.3 S 24 33 13 18 1024.4 1023.8 0.2
21/11:00am 15.0 10.2 7.3 60 3.8 S 22 33 12 18 1025.0 1024.5 0.0
21/10:30am 14.8 9.6 7.1 60 3.8 SSE 24 33 13 18 1025.3 1024.8 0.0
21/10:00am 13.8 8.0 6.4 61 3.6 SSE 26 39 14 21 1025.5 1025.0 0.0
21/09:30am 12.8 7.8 6.4 65 3.1 SSE 22 32 12 17 1025.8 1025.3 0.0
21/09:00am 11.8 6.9 6.7 71 2.4 S 22 30 12 16 1025.7 1025.2 8.0
21/08:30am 10.8 6.3 6.0 72 2.3 SSW 19 24 10 13 1025.7 1025.2 8.0
21/08:00am 10.3 6.6 6.1 75 2.0 SSW 15 22 8 12 1025.4 1024.9 8.0
21/07:30am 10.2 6.8 6.0 75 2.0 S 13 19 7 10 1025.2 1024.7 8.0
21/07:00am 10.5 5.8 5.9 73 2.1 SSE 20 28 11 15 1025.0 1024.5 8.0
21/06:30am 10.8 6.0 5.8 71 2.3 S 20 28 11 15 1024.7 1024.2 8.0
21/06:00am 11.1 7.0 6.3 72 2.3 SSE 17 24 9 13 1024.6 1024.1 8.0
21/05:30am 11.2 6.6 6.3 72 2.3 SSE 20 28 11 15 1024.5 1024.0 8.0
21/05:00am 10.8 6.2 6.6 75 2.0 S 20 28 11 15 1024.2 1023.7 8.0
21/04:30am 10.5 6.1 6.6 77 1.9 S 19 24 10 13 1024.1 1023.6 8.0
21/04:00am 10.4 6.4 6.5 77 1.8 S 17 24 9 13 1023.9 1023.4 8.0
21/03:30am 10.2 6.6 6.9 80 1.6 S 15 20 8 11 1023.8 1023.3 8.0
21/03:00am 9.9 6.2 6.4 79 1.6 S 15 20 8 11 1023.9 1023.4 8.0
21/02:30am 9.9 6.0 7.0 82 1.4 SSW 17 22 9 12 1023.7 1023.2 8.0
21/02:00am 10.2 6.3 6.9 80 1.6 S 17 20 9 11 1023.9 1023.4 8.0
21/01:30am 10.7 5.8 7.0 78 1.8 S 22 28 12 15 1024.4 1023.8 8.0
21/01:00am 10.5 6.1 7.6 82 1.4 S 20 26 11 14 1024.7 1024.2 8.0
21/12:30am 10.4 6.2 8.2 86 1.1 SSW 20 24 11 13 1024.7 1024.2 8.0
21/12:00am 10.3 6.8 8.7 90 0.8 SSW 17 22 9 12 1024.8 1024.3 8.0
 
Date/Time
EST
Temp
°C
App
Temp
°C
Dew
Point
Rel
Hum
%
Delta-T
°C
Wind Press
QNH
hPa
Press
MSL
hPa
Rain
since 9 am
mm
Dir
 
Spd
km/h
Gust
km/h
Spd
kts
Gust
kts
20/11:30pm 10.0 6.9 8.9 93 0.5 SSW 15 22 8 12 1025.2 1024.7 8.0
20/11:00pm 10.0 6.6 9.1 94 0.4 SSW 17 20 9 11 1025.4 1024.9 8.0
20/10:30pm 9.7 7.0 8.9 95 0.4 SSW 13 20 7 11 1025.7 1025.2 7.8
20/10:00pm 9.9 6.0 8.8 93 0.5 SSW 19 24 10 13 1026.1 1025.6 7.2
20/09:30pm 10.1 5.2 8.5 90 0.8 S 24 32 13 17 1026.2 1025.7 6.6
20/09:00pm 10.3 4.6 8.4 88 0.9 SSW 28 35 15 19 1025.9 1025.4 6.4
20/08:30pm 9.9 5.4 8.5 91 0.7 SSW 22 32 12 17 1025.8 1025.3 6.2
20/08:00pm 9.8 5.3 8.4 91 0.7 SSW 22 35 12 19 1025.8 1025.3 5.8
20/07:30pm 9.6 6.0 8.4 92 0.6 SSW 17 22 9 12 1025.9 1025.4 5.8
20/07:00pm 9.3 5.7 8.5 95 0.4 SSW 17 22 9 12 1026.0 1025.5 5.8
20/06:30pm 9.2 5.6 8.4 95 0.4 SSW 17 24 9 13 1026.0 1025.5 4.4
20/06:00pm 9.2 5.0 8.3 94 0.4 SSW 20 28 11 15 1026.0 1025.5 2.8
20/05:30pm 10.0 4.1 7.4 84 1.3 S 28 37 15 20 1025.9 1025.4 0.4
20/05:00pm 10.4 3.6 7.1 80 1.6 S 32 44 17 24 1025.7 1025.2 0.2
20/04:30pm 11.7 3.6 5.1 64 3.1 S 37 52 20 28 1025.8 1025.3 0.0
20/04:03pm 12.8 4.0 3.7 54 4.1 S 39 61 21 33 1025.5 1025.0 0.0
20/04:00pm 12.7 4.0 3.9 55 4.0 S 39 54 21 29 1025.5 1025.0 0.0
20/03:30pm 12.8 5.5 4.5 57 3.8 S 32 41 17 22 1025.7 1025.2 0.0
20/03:00pm 12.9 5.5 3.8 54 4.1 S 32 43 17 23 1025.6 1025.1 0.0
20/02:30pm 12.6 7.0 5.3 61 3.4 S 24 32 13 17 1026.1 1025.6 0.0
20/02:00pm 11.9 4.1 4.9 62 3.2 SSE 35 46 19 25 1026.5 1026.0 0.0
20/01:30pm 12.1 6.1 5.3 63 3.2 SSE 26 39 14 21 1026.7 1026.2 0.0
20/01:26pm 12.0 5.7 5.9 66 2.9 SSE 28 46 15 25 1026.7 1026.2 0.0
20/01:00pm 12.3 5.2 5.5 63 3.2 SSE 32 46 17 25 1027.1 1026.6 0.0
20/12:30pm 11.3 5.5 6.4 72 2.3 SE 26 39 14 21 1027.5 1027.0 0.0
20/12:00pm 13.4 6.1 4.6 55 4.1 SSE 32 50 17 27 1027.6 1027.1 0.0
20/11:33am 13.3 5.1 4.5 55 4.1 SSE 37 56 20 30 1027.9 1027.4 0.0
20/11:32am 13.5 5.2 4.4 54 4.2 SSE 37 56 20 30 1027.9 - 0.0
20/11:30am 13.5 4.9 4.6 55 4.1 SSE 39 56 21 30 1027.8 1027.3 0.0
20/11:25am 13.6 5.7 4.5 54 4.2 S 35 56 19 30 1027.9 1027.4 0.0
20/11:00am 12.8 5.4 4.8 58 3.7 SSE 33 44 18 24 1028.1 1027.6 0.0
20/10:30am 12.6 5.1 4.3 57 3.8 S 33 46 18 25 1028.2 1027.7 0.0
20/10:00am 11.8 5.2 4.1 59 3.5 S 28 35 15 19 1028.4 1028.0 0.0
20/09:30am 10.7 3.6 3.7 62 3.1 S 30 43 16 23 1028.7 1028.3 0.0
20/09:00am 10.0 4.8 3.5 64 2.8 SSW 20 32 11 17 1028.8 1028.4 0.2
20/08:30am 8.6 3.4 3.4 70 2.3 SSW 20 30 11 16 1028.7 1028.3 0.2
20/08:00am 7.7 2.7 3.6 75 1.8 SSW 19 26 10 14 1028.8 1028.4 0.2
20/07:30am 6.8 2.1 3.4 79 1.5 SSW 17 26 9 14 1028.5 1028.1 0.2
20/07:00am 6.0 2.2 3.7 85 1.0 SSW 13 17 7 9 1027.9 1027.4 0.2
20/06:30am 5.8 1.9 3.5 85 1.0 SSW 13 17 7 9 1027.8 1027.3 0.2
20/06:00am 5.8 1.9 3.5 85 1.0 SW 13 17 7 9 1027.5 1027.0 0.2
20/05:30am 5.9 2.1 3.7 86 0.9 SW 13 17 7 9 1027.5 1027.0 0.2
20/05:00am 5.3 2.1 3.3 87 0.8 SW 9 11 5 6 1027.4 1026.9 0.2
20/04:30am 5.8 2.6 3.1 83 1.1 SW 9 11 5 6 1027.3 1026.8 0.2
20/04:00am 6.4 2.9 3.4 81 1.3 SW 11 15 6 8 1027.3 1026.8 0.2
20/03:30am 7.0 3.1 3.4 78 1.5 SSW 13 17 7 9 1027.2 1026.7 0.2
20/03:00am 7.4 3.6 3.8 78 1.6 SSW 13 19 7 10 1027.4 1026.9 0.2
20/02:30am 6.8 3.6 3.2 78 1.5 SW 9 13 5 7 1027.5 1027.0 0.2
20/02:00am 7.6 3.7 3.6 76 1.7 SSW 13 17 7 9 1027.6 1027.1 0.2
20/01:30am 7.9 4.1 3.9 76 1.7 SW 13 15 7 8 1027.5 1027.0 0.2
20/01:00am 8.5 4.3 3.9 73 2.0 SW 15 17 8 9 1027.7 1027.2 0.2
20/12:30am 8.8 5.4 3.8 71 2.2 SSW 11 15 6 8 1027.8 1027.3 0.2
20/12:00am 9.5 5.7 3.9 68 2.5 SSW 13 17 7 9 1028.1 1027.6 0.2
 
Date/Time
EST
Temp
°C
App
Temp
°C
Dew
Point
Rel
Hum
%
Delta-T
°C
Wind Press
QNH
hPa
Press
MSL
hPa
Rain
since 9 am
mm
Dir
 
Spd
km/h
Gust
km/h
Spd
kts
Gust
kts
19/11:30pm 9.5 5.7 3.9 68 2.5 SSW 13 15 7 8 1028.3 1027.8 0.2
19/11:00pm 10.1 6.3 3.8 65 2.8 SSW 13 17 7 9 1028.4 1028.0 0.2
19/10:30pm 10.7 6.2 4.0 63 3.0 SSW 17 20 9 11 1028.6 1028.2 0.2
19/10:00pm 10.8 7.0 3.8 62 3.1 SSW 13 17 7 9 1028.7 1028.3 0.2
19/09:30pm 11.4 6.8 3.7 59 3.5 SSW 17 22 9 12 1028.7 1028.3 0.2
19/09:00pm 11.9 6.8 3.2 55 3.8 SSW 19 24 10 13 1028.5 1028.1 0.2
19/08:30pm 12.3 7.1 3.3 54 4.0 SSW 20 26 11 14 1028.2 1027.7 0.2
19/08:00pm 12.6 7.3 3.0 52 4.3 SSW 20 28 11 15 1027.9 1027.4 0.2
19/07:30pm 12.9 8.2 3.0 51 4.4 SSW 17 24 9 13 1027.5 1027.0 0.2
19/07:00pm 13.6 7.5 2.5 47 4.9 SSW 24 30 13 16 1026.8 1026.3 0.2
19/06:30pm 14.0 8.1 2.0 44 5.3 SSW 22 32 12 17 1026.3 1025.8 0.2
19/06:00pm 14.3 8.9 2.2 44 5.4 S 20 33 11 18 1026.0 1025.5 0.2
19/05:30pm 15.3 8.7 2.1 41 5.9 SSW 26 39 14 21 1025.6 1025.1 0.2
19/05:00pm 16.2 9.5 1.5 37 6.5 SSW 26 37 14 20 1025.3 1024.8 0.2
19/04:30pm 16.6 9.5 1.5 36 6.8 S 28 39 15 21 1025.1 1024.6 0.2
19/04:00pm 16.9 9.9 2.1 37 6.7 S 28 39 15 21 1024.7 1024.2 0.2
19/03:30pm 17.1 10.6 2.7 38 6.6 SSW 26 35 14 19 1024.4 1023.8 0.2
19/03:00pm 16.7 9.4 2.7 39 6.4 S 30 41 16 22 1024.2 1023.7 0.2
19/02:30pm 17.0 9.9 3.7 41 6.3 SSW 30 39 16 21 1024.2 1023.7 0.2
19/02:00pm 16.8 10.8 5.4 47 5.5 S 26 37 14 20 1024.2 1023.7 0.2
19/01:30pm 15.5 10.2 6.8 56 4.3 S 24 33 13 18 1024.5 1024.0 0.2
19/01:00pm 16.0 11.0 8.0 59 4.1 SSW 24 35 13 19 1024.7 1024.2 0.0
19/12:30pm 15.0 10.1 8.5 65 3.3 SSW 24 33 13 18 1024.7 1024.2 0.0
19/12:00pm 14.5 9.4 9.1 70 2.8 SSW 26 37 14 20 1024.9 1024.4 0.0
19/11:30am 14.4 9.8 9.8 74 2.4 SSW 24 35 13 19 1024.9 1024.4 0.0
19/11:00am 14.3 9.2 10.5 78 2.0 SSW 28 35 15 19 1025.0 1024.5 0.0
19/10:30am 13.9 8.9 11.1 83 1.5 SSW 28 41 15 22 1024.9 1024.4 0.0
19/10:00am 13.7 9.2 11.4 86 1.2 SSW 26 35 14 19 1024.6 1024.1 0.0
19/09:30am 14.3 9.9 11.6 84 1.5 SSW 26 33 14 18 1024.1 1023.6 0.0
19/09:00am 14.5 11.6 12.4 87 1.2 SSW 19 28 10 15 1023.9 1023.4 2.8
19/08:30am 13.9 11.4 12.3 90 0.9 SSW 17 22 9 12 1023.6 1023.1 2.8
19/08:00am 13.5 10.9 12.1 91 0.8 SSW 17 26 9 14 1023.0 1022.5 2.8
19/07:30am 13.3 10.8 12.4 94 0.5 SSW 17 24 9 13 1022.2 1021.7 2.8
19/07:00am 13.0 11.0 12.8 99 0.1 SSW 15 20 8 11 1021.8 1021.3 2.8
19/06:30am 11.9 11.1 11.7 99 0.1 SW 7 9 4 5 1021.5 1021.0 2.8
19/06:00am 11.6 10.6 11.1 97 0.3 SSW 7 9 4 5 1021.0 1020.5 2.8
19/05:30am 12.1 11.4 11.5 96 0.3 SSW 6 7 3 4 1020.5 1020.0 2.8
19/05:00am 13.0 11.6 12.2 95 0.4 SSW 11 13 6 7 1020.2 1019.6 2.8
19/04:30am 13.5 12.3 12.7 95 0.4 SSW 11 15 6 8 1019.9 1019.3 2.8
19/04:00am 13.7 12.2 13.1 96 0.3 SSW 13 17 7 9 1019.6 1019.0 2.8
19/03:30am 13.5 11.6 12.9 96 0.3 SSW 15 19 8 10 1019.3 1018.8 2.8
19/03:00am 13.8 11.4 12.7 93 0.6 SSW 17 22 9 12 1019.9 1019.3 2.8
19/02:30am 14.2 12.2 12.8 91 0.8 SSW 15 22 8 12 1019.3 1018.8 2.8
19/02:00am 14.6 11.9 12.8 89 1.0 SSW 19 24 10 13 1019.3 1018.8 2.8
19/01:30am 14.8 12.6 13.3 91 0.8 SSW 17 24 9 13 1019.7 1019.1 2.8
19/01:00am 15.0 13.4 14.0 94 0.6 SSW 15 19 8 10 1019.6 1019.0 2.8
19/12:30am 15.5 14.0 15.3 99 0.1 SSW 17 20 9 11 1019.4 1018.9 2.8
19/12:00am 15.6 13.6 15.4 99 0.1 SSW 20 28 11 15 1019.4 1018.9 2.8
 
Date/Time
EST
Temp
°C
App
Temp
°C
Dew
Point
Rel
Hum
%
Delta-T
°C
Wind Press
QNH
hPa
Press
MSL
hPa
Rain
since 9 am
mm
Dir
 
Spd
km/h
Gust
km/h
Spd
kts
Gust
kts
18/11:30pm 16.2 14.5 15.7 97 0.3 SW 19 28 10 15 1019.3 1018.8 2.8
18/11:00pm 16.8 15.7 16.3 97 0.3 SW 17 28 9 15 1019.2 1018.7 2.8
18/10:30pm 17.5 17.9 17.3 99 0.1 WSW 11 17 6 9 1019.0 1018.5 2.8
18/10:00pm 17.7 18.6 17.5 99 0.1 W 9 13 5 7 1018.6 1018.1 2.8
18/09:30pm 17.6 18.1 17.4 99 0.1 WNW 11 15 6 8 1018.5 1018.0 2.8
18/09:00pm 17.7 18.2 17.5 99 0.1 NW 11 15 6 8 1018.3 1017.8 2.6
18/08:30pm 17.8 18.7 17.5 98 0.2 NW 9 13 5 7 1017.9 1017.4 2.6
18/08:00pm 17.7 19.0 17.2 97 0.3 WNW 6 7 3 4 1017.5 1017.0 2.4
18/07:30pm 17.7 18.5 17.2 97 0.3 NNW 9 11 5 6 1017.2 1016.7 2.4
18/07:00pm 17.9 19.3 17.3 96 0.4 NW 6 7 3 4 1017.0 1016.5 2.4
18/06:30pm 17.9 18.7 17.3 96 0.4 NNW 9 13 5 7 1016.8 1016.3 2.4

Other Formats:

Comma delimited format used in spreadsheet applications
http://www.bom.gov.au/fwo/IDN60801/IDN60801.94710.axf

JavaScript Object Notation format (JSON) in row-major order
http://www.bom.gov.au/fwo/IDN60801/IDN60801.94710.json